Time;durP1;ratioP1;P1;durP2;ratioP2;P2;SDS_P1;SDS_P2;PMS_P1;PMS_P2;Temp;Humidity;BMP_temperature;BMP_pressure;BME280_temperature;BME280_humidity;BME280_pressure;Samples;Min_cycle;Max_cycle;Signal;HPM_P1;HPM_P2
2023/03/14 00:02:02;;;;;;;6.67;5.00;;;9.00;99.90;8.30;97905;;;;589790;243;24044;-74
2023/03/14 00:04:26;;;;;;;5.93;4.67;;;9.10;99.90;8.30;97911;;;;580665;243;23983;-74
2023/03/14 00:06:54;;;;;;;10.87;5.07;;;9.00;99.90;8.30;97906;;;;589850;242;23988;-74
2023/03/14 00:09:22;;;;;;;6.57;4.90;;;9.00;99.90;8.30;97925;;;;589787;243;24063;-74
2023/03/14 00:11:49;;;;;;;6.83;5.37;;;9.00;99.90;8.20;97927;;;;589581;243;23970;-74
2023/03/14 00:14:17;;;;;;;8.20;5.10;;;9.00;99.90;8.20;97934;;;;589597;243;24048;-74
2023/03/14 00:16:48;;;;;;;5.90;5.30;;;9.00;99.90;8.20;97928;;;;589590;242;24012;-74
2023/03/14 00:19:16;;;;;;;6.50;4.53;;;9.00;99.90;8.20;97935;;;;589608;243;23998;-76
2023/03/14 00:21:44;;;;;;;7.23;5.63;;;8.90;99.90;8.20;97947;;;;589599;243;24015;-74
2023/03/14 00:24:15;;;;;;;9.10;4.93;;;9.00;99.90;8.20;97947;;;;589583;243;24087;-77
2023/03/14 00:26:40;;;;;;;6.00;4.67;;;8.90;99.90;8.20;97947;;;;583982;243;23977;-79
2023/03/14 00:29:08;;;;;;;7.47;4.67;;;8.90;99.90;8.10;97930;;;;589572;243;23994;-79
2023/03/14 00:31:36;;;;;;;8.60;5.20;;;8.90;99.90;8.10;97923;;;;589578;243;23966;-77
2023/03/14 00:34:04;;;;;;;6.57;4.30;;;8.90;99.90;8.10;97916;;;;589552;243;24005;-76
2023/03/14 00:36:32;;;;;;;8.37;4.80;;;8.80;99.90;8.10;97923;;;;589528;243;23989;-74
2023/03/14 00:38:59;;;;;;;5.30;4.80;;;8.80;99.90;8.10;97913;;;;589621;242;23969;-74
2023/03/14 00:41:27;;;;;;;5.53;4.57;;;8.90;99.90;8.10;97906;;;;589287;243;24022;-74
2023/03/14 00:43:55;;;;;;;8.40;5.00;;;8.90;99.90;8.10;97905;;;;589107;243;24006;-74
2023/03/14 00:46:23;;;;;;;7.33;5.50;;;8.90;99.90;8.10;97898;;;;590383;241;23961;-74
2023/03/14 00:48:51;;;;;;;8.27;4.60;;;8.90;99.90;8.20;97914;;;;590388;242;23987;-78
2023/03/14 00:51:19;;;;;;;6.03;5.10;;;8.90;99.90;8.20;97901;;;;589947;242;24004;-78
2023/03/14 00:53:47;;;;;;;7.77;5.10;;;9.00;99.90;8.20;97918;;;;590041;243;24015;-78
2023/03/14 00:56:18;;;;;;;5.70;4.27;;;9.00;99.90;8.20;97919;;;;589563;243;24020;-76
2023/03/14 00:58:43;;;;;;;7.10;4.70;;;9.00;99.90;8.20;97917;;;;589488;239;24049;-75
2023/03/14 01:01:11;;;;;;;9.27;4.70;;;9.00;99.90;8.20;97918;;;;589748;243;24047;-74
2023/03/14 01:03:39;;;;;;;8.93;4.57;;;9.00;99.90;8.20;97923;;;;581009;243;23987;-76
2023/03/14 01:06:13;;;;;;;7.00;5.53;;;9.00;99.90;8.20;97931;;;;589488;243;23981;-76
2023/03/14 01:08:41;;;;;;;6.57;4.57;;;9.00;99.90;8.30;97929;;;;580252;243;23970;-79
2023/03/14 01:11:09;;;;;;;7.50;4.60;;;9.00;99.90;8.30;97903;;;;580405;243;23992;-74
2023/03/14 01:13:37;;;;;;;4.17;3.57;;;9.00;99.90;8.20;97895;;;;577905;243;24025;-75
2023/03/14 01:16:06;;;;;;;6.60;4.50;;;9.10;99.90;8.30;97895;;;;580503;243;24129;-74
2023/03/14 01:18:38;;;;;;;5.00;4.57;;;9.00;99.90;8.30;97891;;;;589242;243;23986;-78
2023/03/14 01:21:15;;;;;;;5.10;4.10;;;9.10;99.90;8.30;97886;;;;580477;243;24038;-76
2023/03/14 01:23:44;;;;;;;6.30;3.83;;;9.00;99.90;8.30;97906;;;;580097;243;23976;-77
2023/03/14 01:26:12;;;;;;;6.90;4.70;;;9.10;99.90;8.30;97899;;;;580224;243;24021;-76
2023/03/14 01:28:43;;;;;;;4.10;3.80;;;9.10;99.90;8.30;97893;;;;580105;243;24043;-77
2023/03/14 01:31:08;;;;;;;7.30;4.67;;;9.10;99.90;8.40;97885;;;;588755;243;24026;-76
2023/03/14 01:33:36;;;;;;;5.50;3.93;;;9.10;99.90;8.40;97879;;;;580166;243;24016;-75
2023/03/14 01:36:06;;;;;;;4.10;3.77;;;9.10;99.90;8.40;97900;;;;580064;243;24044;-76
2023/03/14 01:38:34;;;;;;;5.97;5.37;;;9.10;99.90;8.40;97891;;;;589000;242;24043;-76
2023/03/14 01:40:59;;;;;;;5.17;4.10;;;9.10;99.90;8.40;97904;;;;580204;243;24030;-78
2023/03/14 01:43:27;;;;;;;6.40;4.30;;;9.20;99.90;8.40;97894;;;;580557;243;24049;-75
2023/03/14 01:46:04;;;;;;;5.60;3.87;;;9.20;99.90;8.40;97888;;;;580181;243;23980;-76
2023/03/14 01:48:51;;;;;;;4.87;4.27;;;9.20;99.90;8.40;97890;;;;589564;242;23966;-78
2023/03/14 01:51:19;;;;;;;6.10;4.73;;;9.10;99.90;8.40;97893;;;;579908;243;24022;-78
2023/03/14 01:53:47;;;;;;;6.83;4.33;;;9.20;99.90;8.30;97884;;;;575753;243;23988;-76
2023/03/14 01:56:15;;;;;;;5.67;3.40;;;9.10;99.90;8.30;97872;;;;577574;243;23977;-77
2023/03/14 01:58:43;;;;;;;5.93;3.63;;;9.10;99.90;8.30;97866;;;;581608;243;23983;-78
2023/03/14 02:01:11;;;;;;;5.93;3.93;;;9.10;99.90;8.30;97872;;;;578637;243;23984;-77
2023/03/14 02:03:39;;;;;;;6.43;4.50;;;9.10;99.90;8.30;97871;;;;580927;243;24024;-77
2023/03/14 02:06:07;;;;;;;5.33;3.73;;;9.10;99.90;8.30;97859;;;;580243;243;24025;-77
2023/03/14 02:08:35;;;;;;;10.77;4.80;;;9.10;99.90;8.40;97853;;;;589674;243;25053;-78
2023/03/14 02:11:03;;;;;;;5.73;3.87;;;9.10;99.90;8.30;97856;;;;578327;243;24040;-76
2023/03/14 02:13:32;;;;;;;4.53;3.80;;;9.20;99.90;8.40;97852;;;;589782;243;24005;-77
2023/03/14 02:15:59;;;;;;;4.27;3.87;;;9.10;99.90;8.40;97843;;;;589381;243;24005;-78
2023/03/14 02:18:27;;;;;;;6.23;3.93;;;9.10;99.90;8.30;97859;;;;589525;241;24036;-78
2023/03/14 02:21:13;;;;;;;7.53;4.93;;;9.10;99.90;8.30;97859;;;;580408;243;23977;-78
2023/03/14 02:24:12;;;;;;;4.03;3.63;;;9.10;99.90;8.30;97869;;;;589110;241;23985;-79
2023/03/14 02:26:40;;;;;;;9.57;4.67;;;9.10;99.90;8.20;97866;;;;580597;243;23962;-76
2023/03/14 02:29:07;;;;;;;5.67;3.80;;;9.00;99.90;8.20;97865;;;;575178;243;24024;-74
2023/03/14 02:31:36;;;;;;;8.63;3.70;;;8.90;99.90;8.10;97861;;;;589499;243;24004;-77
2023/03/14 02:34:04;;;;;;;5.57;4.07;;;8.90;99.90;8.00;97856;;;;589154;243;23973;-74
2023/03/14 02:36:33;;;;;;;5.60;4.30;;;8.80;99.90;8.00;97854;;;;589210;243;23999;-78
2023/03/14 02:39:12;;;;;;;6.70;4.10;;;8.80;99.90;8.00;97847;;;;588991;243;23979;-75
2023/03/14 02:41:42;;;;;;;6.47;3.87;;;8.80;99.90;8.00;97848;;;;580272;243;23993;-75
2023/03/14 02:44:08;;;;;;;4.30;3.50;;;8.70;99.90;7.90;97845;;;;589473;243;24018;-77
2023/03/14 02:46:36;;;;;;;5.20;3.60;;;8.70;99.90;7.90;97827;;;;589495;243;23962;-76
2023/03/14 02:49:04;;;;;;;3.70;3.40;;;8.70;99.90;7.90;97839;;;;580206;243;24040;-74
2023/03/14 02:51:32;;;;;;;4.87;4.30;;;8.70;99.90;8.00;97840;;;;579948;243;23991;-75
2023/03/14 02:54:00;;;;;;;4.67;4.10;;;8.70;99.90;8.00;97834;;;;577745;243;24027;-76
2023/03/14 02:56:28;;;;;;;5.77;3.73;;;8.80;99.90;8.00;97838;;;;577661;243;24030;-75
2023/03/14 02:58:57;;;;;;;5.77;4.20;;;8.70;99.90;8.00;97855;;;;589193;240;24003;-74
2023/03/14 03:01:24;;;;;;;6.30;3.60;;;8.80;99.90;8.00;97869;;;;589228;243;24019;-74
2023/03/14 03:03:52;;;;;;;5.87;4.20;;;8.80;99.90;8.00;97874;;;;575302;243;23993;-75
2023/03/14 03:06:20;;;;;;;5.27;3.77;;;8.80;99.90;8.00;97888;;;;589257;243;24000;-75
2023/03/14 03:08:49;;;;;;;7.33;3.63;;;8.80;99.90;8.00;97885;;;;589878;242;23980;-74
2023/03/14 03:11:17;;;;;;;6.13;3.77;;;8.80;99.90;8.00;97875;;;;590549;242;24026;-79
2023/03/14 03:13:44;;;;;;;5.07;3.77;;;8.80;99.90;8.00;97889;;;;590159;242;23971;-78
2023/03/14 03:16:14;;;;;;;5.37;4.20;;;8.80;99.90;8.00;97890;;;;589924;242;23995;-78
2023/03/14 03:18:40;;;;;;;4.53;3.63;;;8.80;99.90;8.00;97893;;;;589812;243;24012;-77
2023/03/14 03:21:09;;;;;;;3.80;3.50;;;8.80;99.90;8.00;97908;;;;589751;243;23969;-76
2023/03/14 03:23:36;;;;;;;4.10;3.70;;;8.80;99.90;8.00;97916;;;;589859;243;23964;-76
2023/03/14 03:26:07;;;;;;;6.83;4.00;;;8.80;99.90;8.00;97905;;;;589870;243;23972;-77
2023/03/14 03:28:32;;;;;;;3.93;3.50;;;8.80;99.90;8.00;97912;;;;589030;243;25088;-76
2023/03/14 03:31:00;;;;;;;4.03;3.30;;;8.80;99.90;8.10;97923;;;;589518;242;24005;-77
2023/03/14 03:33:28;;;;;;;5.23;3.30;;;8.80;99.90;8.10;97911;;;;579671;243;24086;-76
2023/03/14 03:35:56;;;;;;;5.60;2.93;;;8.90;99.90;8.20;97915;;;;589611;243;23989;-78
2023/03/14 03:38:23;;;;;;;4.70;3.47;;;8.90;99.90;8.20;97921;;;;589456;243;23969;-77
2023/03/14 03:40:51;;;;;;;5.00;4.10;;;9.00;99.90;8.30;97931;;;;584453;243;34252;-77
2023/03/14 03:43:19;;;;;;;3.47;3.00;;;9.10;99.90;8.30;97929;;;;589487;243;23970;-75
2023/03/14 03:45:47;;;;;;;3.73;3.33;;;9.10;99.90;8.40;97941;;;;589612;243;24021;-77
2023/03/14 03:48:15;;;;;;;4.50;3.47;;;9.10;99.90;8.40;97932;;;;589597;243;24010;-78
2023/03/14 03:50:47;;;;;;;4.20;3.17;;;9.20;99.90;8.40;97942;;;;589073;242;23992;-78
2023/03/14 03:53:15;;;;;;;3.60;3.30;;;9.20;99.90;8.40;97932;;;;580207;243;23995;-77
2023/03/14 03:55:43;;;;;;;3.33;2.80;;;9.20;99.90;8.40;97920;;;;589190;243;23997;-75
2023/03/14 03:58:10;;;;;;;5.40;3.07;;;9.30;99.90;8.50;97921;;;;589605;239;24323;-77
2023/03/14 04:00:38;;;;;;;3.63;3.13;;;9.30;99.90;8.50;97924;;;;589188;243;25081;-74
2023/03/14 04:03:06;;;;;;;3.97;3.10;;;9.30;99.90;8.50;97919;;;;589109;243;23958;-74
2023/03/14 04:05:34;;;;;;;2.67;2.47;;;9.30;99.90;8.60;97906;;;;589228;242;23989;-74
2023/03/14 04:08:05;;;;;;;3.40;3.10;;;9.40;99.90;8.50;97899;;;;589218;242;24008;-77
2023/03/14 04:10:30;;;;;;;3.87;2.97;;;9.30;99.90;8.60;97908;;;;588885;243;23986;-75
2023/03/14 04:12:58;;;;;;;6.53;2.70;;;9.40;99.90;8.60;97905;;;;589194;243;23961;-73
2023/03/14 04:15:26;;;;;;;2.83;2.57;;;9.30;99.90;8.60;97893;;;;589119;243;23973;-77
2023/03/14 04:18:00;;;;;;;4.33;2.70;;;9.40;99.90;8.60;97900;;;;589267;243;23989;-77
2023/03/14 04:20:24;;;;;;;5.23;2.70;;;9.40;99.90;8.60;97901;;;;576355;242;23969;-77
2023/03/14 04:22:52;;;;;;;4.50;3.13;;;9.40;99.90;8.70;97899;;;;590497;242;24041;-75
2023/03/14 04:25:21;;;;;;;3.07;2.30;;;9.50;99.90;8.70;97883;;;;590169;242;23983;-73
2023/03/14 04:27:49;;;;;;;2.50;2.30;;;9.50;99.90;8.70;97874;;;;590123;242;24003;-75
2023/03/14 04:30:16;;;;;;;2.63;2.40;;;9.50;99.90;8.70;97871;;;;580837;243;23983;-77
2023/03/14 04:32:44;;;;;;;3.30;2.20;;;9.50;99.90;8.70;97863;;;;589663;243;23993;-78
2023/03/14 04:35:12;;;;;;;4.73;2.50;;;9.50;99.90;8.70;97858;;;;580773;243;23993;-77
2023/03/14 04:37:43;;;;;;;2.37;2.17;;;9.60;99.90;8.70;97860;;;;589715;243;24015;-78
2023/03/14 04:40:09;;;;;;;5.83;2.30;;;9.50;99.90;8.70;97857;;;;589451;243;23980;-77
2023/03/14 04:42:37;;;;;;;3.87;2.53;;;9.60;99.90;8.70;97860;;;;580392;243;24020;-77
2023/03/14 04:45:05;;;;;;;5.30;2.47;;;9.50;99.90;8.70;97855;;;;589382;243;24043;-76
2023/03/14 04:47:33;;;;;;;2.33;2.10;;;9.50;99.90;8.70;97851;;;;580952;243;23997;-77
2023/03/14 04:50:04;;;;;;;4.53;2.30;;;9.50;99.90;8.70;97844;;;;589882;243;23950;-77
2023/03/14 04:52:29;;;;;;;2.93;2.60;;;9.50;99.90;8.70;97834;;;;589184;243;23973;-78
2023/03/14 04:54:57;;;;;;;7.13;2.93;;;9.50;99.90;8.70;97832;;;;584089;243;23986;-77
2023/03/14 04:57:25;;;;;;;3.50;2.40;;;9.50;99.90;8.70;97818;;;;589308;240;24047;-76
2023/03/14 04:59:54;;;;;;;2.53;2.13;;;9.40;99.90;8.60;97821;;;;589210;243;23984;-75
2023/03/14 05:02:22;;;;;;;3.83;2.77;;;9.40;99.90;8.60;97811;;;;589102;243;24116;-77
2023/03/14 05:04:50;;;;;;;4.50;2.57;;;9.40;99.90;8.50;97806;;;;589519;243;23985;-76
2023/03/14 05:07:18;;;;;;;2.67;2.47;;;9.30;99.90;8.50;97792;;;;589510;243;23979;-74
2023/03/14 05:09:45;;;;;;;4.33;2.77;;;9.30;99.90;8.40;97787;;;;589531;243;24002;-75
2023/03/14 05:12:14;;;;;;;3.23;2.93;;;9.10;99.90;8.40;97783;;;;589582;243;23989;-77
2023/03/14 05:14:42;;;;;;;2.60;2.40;;;9.10;99.90;8.30;97780;;;;589530;243;24020;-74
2023/03/14 05:17:14;;;;;;;2.33;2.13;;;9.10;99.90;8.30;97771;;;;589590;243;24013;-77
2023/03/14 05:19:39;;;;;;;3.47;3.17;;;9.10;99.90;8.20;97774;;;;575259;243;34202;-78
2023/03/14 05:22:06;;;;;;;3.27;2.50;;;9.00;99.90;8.20;97767;;;;589614;242;23998;-76
2023/03/14 05:24:34;;;;;;;3.50;3.00;;;9.00;99.90;8.20;97765;;;;589515;243;24035;-78
2023/03/14 05:27:02;;;;;;;3.20;2.30;;;8.90;99.90;8.10;97755;;;;589560;243;24038;-74
2023/03/14 05:29:30;;;;;;;2.43;2.23;;;8.90;99.90;8.10;97765;;;;578089;243;23969;-78
2023/03/14 05:31:58;;;;;;;2.80;2.60;;;8.90;99.90;8.10;97774;;;;590254;241;24004;-78
2023/03/14 05:34:26;;;;;;;3.17;2.37;;;8.90;99.90;8.10;97778;;;;590913;242;24009;-78
2023/03/14 05:36:55;;;;;;;2.60;2.40;;;8.90;99.90;8.10;97789;;;;590544;242;24018;-78
2023/03/14 05:39:25;;;;;;;6.23;2.50;;;8.90;99.90;8.10;97788;;;;590360;243;23991;-78
2023/03/14 05:41:50;;;;;;;3.00;2.20;;;8.90;99.90;8.10;97802;;;;576250;243;23973;-77
2023/03/14 05:44:18;;;;;;;2.23;2.00;;;8.90;99.90;8.20;97803;;;;589926;243;23987;-76
2023/03/14 05:46:45;;;;;;;3.47;2.47;;;9.00;99.90;8.20;97805;;;;590107;243;24027;-78
2023/03/14 05:49:13;;;;;;;2.20;2.00;;;9.00;99.90;8.30;97808;;;;589670;243;24032;-79
2023/03/14 05:51:41;;;;;;;2.17;1.97;;;9.00;99.90;8.30;97808;;;;589472;243;24009;-76
2023/03/14 05:54:10;;;;;;;2.40;2.20;;;9.20;99.90;8.40;97809;;;;589353;242;24021;-74
2023/03/14 05:56:38;;;;;;;6.20;2.20;;;9.20;99.90;8.50;97818;;;;589592;242;24009;-76
2023/03/14 05:59:10;;;;;;;2.43;2.20;;;9.20;99.90;8.50;97808;;;;589423;239;23998;-75
2023/03/14 06:01:34;;;;;;;3.30;2.23;;;9.30;99.90;8.60;97808;;;;579869;243;24040;-75
2023/03/14 06:04:02;;;;;;;3.20;2.50;;;9.40;99.90;8.60;97819;;;;589478;243;24025;-76
2023/03/14 06:06:33;;;;;;;2.70;2.30;;;9.40;99.90;8.70;97822;;;;589409;243;23977;-75
2023/03/14 06:09:00;;;;;;;4.80;3.03;;;9.40;99.90;8.70;97822;;;;589111;243;24080;-77
2023/03/14 06:11:28;;;;;;;2.33;2.10;;;9.50;99.90;8.80;97831;;;;583657;243;24043;-74
2023/03/14 06:13:54;;;;;;;2.30;2.10;;;9.60;99.90;8.80;97822;;;;583512;243;25116;-75
2023/03/14 06:16:22;;;;;;;4.93;2.43;;;9.60;99.90;8.90;97834;;;;589195;243;23985;-76
2023/03/14 06:18:52;;;;;;;3.37;2.40;;;9.70;99.90;8.90;97838;;;;579899;243;23981;-78
2023/03/14 06:21:22;;;;;;;2.83;2.03;;;9.70;99.90;9.00;97832;;;;589155;243;24035;-75
2023/03/14 06:23:47;;;;;;;2.23;2.07;;;9.80;99.90;9.00;97833;;;;575204;243;24067;-74
2023/03/14 06:26:14;;;;;;;1.87;1.77;;;9.80;99.90;9.10;97833;;;;589290;243;24018;-73
2023/03/14 06:28:42;;;;;;;2.60;2.33;;;9.90;99.90;9.20;97832;;;;589179;243;23968;-74
2023/03/14 06:31:11;;;;;;;4.13;2.40;;;10.00;99.90;9.20;97833;;;;580070;243;24072;-74
2023/03/14 06:33:39;;;;;;;3.80;2.77;;;10.00;99.90;9.30;97825;;;;589183;243;23978;-75
2023/03/14 06:36:07;;;;;;;4.57;2.30;;;10.10;99.90;9.40;97827;;;;589098;242;23973;-74
2023/03/14 06:38:35;;;;;;;9.13;2.63;;;10.20;99.90;9.50;97830;;;;580770;243;24005;-73
2023/03/14 06:41:06;;;;;;;7.83;2.57;;;10.20;99.90;9.50;97836;;;;575404;243;23991;-74
2023/03/14 06:43:35;;;;;;;4.30;2.80;;;10.40;99.90;9.60;97840;;;;590281;241;23969;-77
2023/03/14 06:46:05;;;;;;;8.57;2.70;;;10.40;99.90;9.70;97834;;;;590555;242;24023;-76
2023/03/14 06:48:31;;;;;;;6.40;2.63;;;10.60;99.90;9.80;97825;;;;580890;243;24025;-78
2023/03/14 06:51:00;;;;;;;6.70;2.30;;;10.60;99.90;9.80;97818;;;;590079;242;24011;-73
2023/03/14 06:53:28;;;;;;;11.47;3.07;;;10.60;99.90;9.90;97835;;;;589720;242;23973;-73
2023/03/14 06:55:56;;;;;;;3.80;2.23;;;10.70;99.90;9.90;97832;;;;590167;242;23997;-77
2023/03/14 06:58:23;;;;;;;4.80;1.87;;;10.70;99.90;10.00;97825;;;;589805;239;24025;-74
2023/03/14 07:00:56;;;;;;;1.90;1.80;;;10.80;99.90;10.10;97826;;;;589608;242;23969;-75
2023/03/14 07:03:21;;;;;;;2.23;1.83;;;10.90;99.90;10.10;97819;;;;588866;241;23969;-76
2023/03/14 07:05:49;;;;;;;4.73;1.90;;;10.90;99.90;10.20;97837;;;;580302;243;24032;-77
2023/03/14 07:08:17;;;;;;;2.10;1.63;;;10.90;99.90;10.30;97838;;;;589559;242;23992;-74
2023/03/14 07:10:45;;;;;;;2.30;1.97;;;11.00;99.90;10.40;97834;;;;589459;243;24019;-75
2023/03/14 07:13:13;;;;;;;2.27;1.80;;;11.20;99.90;10.50;97839;;;;589585;243;23958;-75
2023/03/14 07:15:41;;;;;;;2.67;1.73;;;11.20;99.90;10.50;97844;;;;589437;243;23989;-75
2023/03/14 07:18:12;;;;;;;2.63;2.10;;;11.30;99.90;10.50;97837;;;;589398;242;24013;-74
2023/03/14 07:20:37;;;;;;;4.73;2.50;;;11.30;99.90;10.50;97839;;;;575069;243;34175;-75
2023/03/14 07:23:05;;;;;;;3.90;2.27;;;11.30;99.90;10.60;97831;;;;589141;243;23964;-73
2023/03/14 07:25:33;;;;;;;5.87;2.20;;;11.40;99.90;10.80;97843;;;;589295;243;27260;-74
2023/03/14 07:28:01;;;;;;;3.20;2.27;;;11.50;99.90;11.00;97825;;;;589134;243;24005;-74
2023/03/14 07:30:29;;;;;;;2.93;2.10;;;11.70;99.90;11.30;97814;;;;581083;243;23998;-77
2023/03/14 07:32:56;;;;;;;2.33;2.13;;;11.90;99.90;11.60;97821;;;;589243;243;23977;-74
2023/03/14 07:35:25;;;;;;;2.93;2.63;;;12.60;99.90;12.00;97811;;;;575364;243;23969;-77
2023/03/14 07:37:53;;;;;;;3.40;2.13;;;12.60;99.90;12.60;97813;;;;589218;242;23953;-75
2023/03/14 07:40:21;;;;;;;3.47;2.60;;;13.10;99.90;13.40;97809;;;;589094;243;23978;-76
2023/03/14 07:42:49;;;;;;;2.30;2.10;;;13.80;99.90;14.00;97811;;;;589293;243;23996;-74
2023/03/14 07:45:21;;;;;;;3.63;2.20;;;14.60;99.90;14.30;97809;;;;589071;243;24060;-79
2023/03/14 07:47:45;;;;;;;2.67;2.47;;;15.00;99.90;14.60;97809;;;;588832;241;23986;-80
2023/03/14 07:50:16;;;;;;;3.53;2.37;;;15.20;99.90;14.70;97813;;;;589273;243;23984;-75
2023/03/14 07:52:41;;;;;;;2.30;2.10;;;15.50;99.90;14.80;97813;;;;584067;243;23975;-74
2023/03/14 07:55:09;;;;;;;3.27;1.80;;;15.60;99.90;14.80;97802;;;;590243;241;23964;-74
2023/03/14 07:57:40;;;;;;;3.77;2.37;;;15.60;99.90;14.80;97797;;;;590473;239;24027;-75
2023/03/14 08:00:10;;;;;;;1.83;1.70;;;15.60;99.90;14.60;97797;;;;590534;242;23964;-75
2023/03/14 08:02:38;;;;;;;2.57;2.37;;;15.50;99.90;14.50;97789;;;;580948;243;23954;-74
2023/03/14 08:05:06;;;;;;;2.33;1.80;;;15.30;99.90;14.50;97780;;;;589733;242;23986;-74
2023/03/14 08:07:34;;;;;;;2.93;2.00;;;15.30;99.90;14.50;97785;;;;581236;243;23965;-79
2023/03/14 08:10:01;;;;;;;3.67;2.30;;;15.20;99.90;14.60;97782;;;;580980;243;23966;-75
2023/03/14 08:12:29;;;;;;;2.60;2.40;;;15.20;99.90;14.60;97783;;;;589761;242;23962;-75
2023/03/14 08:14:59;;;;;;;2.53;2.00;;;15.30;99.90;14.60;97782;;;;580429;243;24009;-75
2023/03/14 08:17:25;;;;;;;2.20;2.00;;;15.30;99.90;14.50;97779;;;;589265;241;24000;-73
2023/03/14 08:19:53;;;;;;;3.40;2.37;;;15.20;99.90;14.40;97777;;;;589488;243;23974;-75
2023/03/14 08:22:21;;;;;;;2.77;2.10;;;15.10;99.90;14.30;97762;;;;589348;243;24016;-76
2023/03/14 08:24:49;;;;;;;6.10;2.50;;;15.00;99.90;14.10;97765;;;;589548;243;23988;-75
2023/03/14 08:27:17;;;;;;;2.43;2.23;;;14.80;99.90;14.00;97776;;;;589446;243;24013;-77
2023/03/14 08:29:45;;;;;;;4.60;2.70;;;14.70;99.90;14.20;97776;;;;589537;243;24016;-76
2023/03/14 08:32:13;;;;;;;4.07;2.53;;;14.80;99.90;14.60;97768;;;;580207;243;23966;-74
2023/03/14 08:34:41;;;;;;;4.37;2.50;;;15.10;99.90;14.70;97765;;;;589070;243;24027;-77
2023/03/14 08:37:08;;;;;;;2.17;2.07;;;15.30;99.90;14.80;97757;;;;589272;243;24016;-79
2023/03/14 08:39:36;;;;;;;2.37;2.17;;;15.40;99.90;14.80;97766;;;;589148;243;23970;-77
2023/03/14 08:42:05;;;;;;;3.33;2.50;;;15.40;99.90;14.60;97756;;;;589284;243;23960;-76
2023/03/14 08:44:33;;;;;;;3.07;2.40;;;15.40;99.90;14.50;97737;;;;589170;243;23954;-78
2023/03/14 08:47:01;;;;;;;2.43;2.23;;;15.20;99.90;14.30;97737;;;;589113;243;23993;-78
2023/03/14 08:49:29;;;;;;;3.20;2.83;;;15.10;99.90;14.10;97733;;;;589207;243;23997;-78
2023/03/14 08:51:57;;;;;;;2.70;2.50;;;14.90;99.90;14.00;97733;;;;589127;242;23956;-78
2023/03/14 08:54:25;;;;;;;3.00;2.60;;;14.70;99.90;13.90;97748;;;;589546;243;23954;-78
2023/03/14 08:56:52;;;;;;;2.87;2.57;;;14.60;99.90;13.90;97747;;;;589503;243;24046;-80
2023/03/14 08:59:20;;;;;;;3.93;2.67;;;14.50;99.90;13.90;97758;;;;589236;242;23980;-76
2023/03/14 09:01:48;;;;;;;3.17;2.40;;;14.50;99.90;13.90;97755;;;;589179;242;24007;-79
2023/03/14 09:04:19;;;;;;;2.80;2.30;;;14.60;99.90;13.90;97755;;;;589051;242;24006;-77
2023/03/14 09:06:44;;;;;;;3.40;2.60;;;14.60;99.90;14.00;97752;;;;580726;243;23984;-76
2023/03/14 09:09:13;;;;;;;3.27;2.80;;;14.60;99.90;14.10;97760;;;;590420;241;24055;-73
2023/03/14 09:11:40;;;;;;;5.63;2.87;;;14.70;99.90;14.10;97750;;;;590190;242;23959;-77
2023/03/14 09:14:08;;;;;;;2.90;2.60;;;14.80;99.90;14.30;97745;;;;580964;243;24073;-74
2023/03/14 09:16:39;;;;;;;5.57;2.77;;;14.90;99.90;14.50;97746;;;;589690;242;24001;-75
2023/03/14 09:19:07;;;;;;;3.67;2.73;;;15.10;99.90;14.60;97752;;;;589509;243;24029;-78
2023/03/14 09:21:32;;;;;;;3.17;2.95;;;15.20;99.90;14.60;97759;;;;579115;243;34206;-75
2023/03/14 09:23:59;;;;;;;3.60;2.83;;;15.20;99.90;14.60;97762;;;;580744;243;23973;-75
2023/03/14 09:26:28;;;;;;;3.73;2.73;;;15.40;99.90;14.80;97779;;;;589438;243;23968;-74
2023/03/14 09:28:56;;;;;;;3.80;2.50;;;15.40;99.90;14.90;97779;;;;589540;243;23955;-79
2023/03/14 09:31:27;;;;;;;4.17;2.73;;;15.50;99.90;14.90;97775;;;;589483;243;23963;-74
2023/03/14 09:33:55;;;;;;;5.00;3.00;;;15.60;99.90;15.00;97782;;;;583808;243;23977;-73
2023/03/14 09:36:23;;;;;;;7.47;2.57;;;15.80;99.90;15.10;97788;;;;589337;243;24023;-75
2023/03/14 09:38:49;;;;;;;7.13;2.77;;;15.80;99.90;15.10;97786;;;;580281;243;24060;-74
2023/03/14 09:41:29;;;;;;;3.10;2.47;;;15.80;99.90;15.00;97774;;;;589500;242;24031;-74
2023/03/14 09:44:06;;;;;;;4.10;2.70;;;15.70;99.90;14.90;97776;;;;580702;243;23974;-76
2023/03/14 09:46:33;;;;;;;3.80;2.83;;;15.60;99.90;14.90;97782;;;;580097;243;24024;-75
2023/03/14 09:49:04;;;;;;;6.33;2.60;;;15.60;99.90;14.80;97785;;;;589017;240;23979;-76
2023/03/14 09:51:33;;;;;;;6.67;3.17;;;15.50;99.90;14.60;97786;;;;579979;243;24026;-77
2023/03/14 09:53:58;;;;;;;7.00;2.80;;;15.20;99.90;14.50;97778;;;;589115;243;24014;-79
2023/03/14 09:56:29;;;;;;;2.83;2.47;;;15.20;99.90;14.30;97790;;;;581004;243;24002;-76
2023/03/14 09:58:59;;;;;;;4.60;2.90;;;15.00;99.90;14.10;97791;;;;589007;239;23974;-77
2023/03/14 10:01:27;;;;;;;4.73;2.77;;;14.80;99.90;13.90;97796;;;;580532;243;24134;-79
2023/03/14 10:03:55;;;;;;;2.63;2.47;;;14.60;99.90;13.70;97792;;;;589572;243;23986;-79
2023/03/14 10:06:23;;;;;;;3.57;2.57;;;14.20;99.90;13.50;97790;;;;589523;243;23974;-76
2023/03/14 10:08:52;;;;;;;7.00;3.17;;;14.20;99.90;13.30;97795;;;;580672;243;24016;-80
2023/03/14 10:11:22;;;;;;;4.10;3.07;;;14.00;99.90;13.20;97790;;;;589572;243;23986;-77
2023/03/14 10:14:08;;;;;;;3.03;2.83;;;13.90;99.90;13.20;97795;;;;580192;243;23986;-77
2023/03/14 10:16:42;;;;;;;3.07;2.73;;;13.90;99.90;13.10;97791;;;;589641;241;23981;-78
2023/03/14 10:19:15;;;;;;;7.37;3.10;;;13.80;99.90;13.00;97794;;;;590766;241;24022;-75
2023/03/14 10:21:43;;;;;;;6.63;2.63;;;13.70;99.90;12.90;97789;;;;581673;243;24020;-76
2023/03/14 10:24:21;;;;;;;5.73;3.00;;;13.50;99.90;12.80;97795;;;;589710;243;23984;-74
2023/03/14 10:26:54;;;;;;;6.87;2.90;;;13.40;99.90;12.70;97806;;;;590082;243;24025;-75
2023/03/14 10:29:25;;;;;;;6.10;3.07;;;13.40;99.90;12.70;97806;;;;590097;243;24005;-75
2023/03/14 10:32:02;;;;;;;4.93;2.90;;;13.30;99.90;12.70;97808;;;;590066;243;23990;-74
2023/03/14 10:34:36;;;;;;;4.07;3.23;;;13.40;99.90;12.70;97806;;;;590077;243;24046;-74
2023/03/14 10:37:25;;;;;;;4.40;3.40;;;13.40;99.90;12.80;97798;;;;576052;243;34249;-75
2023/03/14 10:39:51;;;;;;;3.70;3.00;;;13.40;99.90;13.00;97796;;;;589680;243;23963;-75
2023/03/14 10:42:22;;;;;;;4.30;3.10;;;13.60;99.90;13.20;97799;;;;589629;243;24003;-76
2023/03/14 10:44:50;;;;;;;3.00;2.67;;;13.80;99.90;13.40;97816;;;;580795;242;24031;-78
2023/03/14 10:47:20;;;;;;;5.63;3.23;;;14.00;99.90;13.50;97809;;;;589608;243;24017;-77
2023/03/14 10:49:49;;;;;;;2.87;2.60;;;14.20;99.90;13.60;97816;;;;589664;243;24049;-74
2023/03/14 10:52:29;;;;;;;3.13;2.90;;;14.20;99.90;13.60;97809;;;;589787;243;23958;-75
2023/03/14 10:55:00;;;;;;;5.03;3.03;;;14.30;99.90;13.60;97802;;;;589507;243;23970;-77
2023/03/14 10:57:28;;;;;;;3.73;2.43;;;14.30;99.90;13.50;97812;;;;589046;240;23977;-76
2023/03/14 10:59:59;;;;;;;6.67;2.73;;;14.10;99.90;13.40;97797;;;;577982;243;24027;-74
2023/03/14 11:02:54;;;;;;;4.70;2.63;;;14.10;99.90;13.40;97788;;;;577906;243;24056;-77
2023/03/14 11:05:38;;;;;;;3.33;2.57;;;14.10;99.90;13.40;97792;;;;579681;243;23983;-76
2023/03/14 11:08:08;;;;;;;5.40;3.10;;;14.10;99.90;13.40;97785;;;;588912;243;24004;-74
2023/03/14 11:10:42;;;;;;;17.40;3.63;;;14.00;99.90;13.30;97782;;;;580439;243;23983;-76
2023/03/14 11:13:30;;;;;;;7.80;3.07;;;14.00;99.90;13.40;97775;;;;589059;243;23962;-76
2023/03/14 11:16:22;;;;;;;4.37;3.07;;;14.00;99.90;13.50;97770;;;;566632;243;24296;-73
2023/03/14 11:19:11;;;;;;;3.60;2.73;;;14.10;99.90;13.90;97757;;;;588951;243;23993;-77
2023/03/14 11:22:00;;;;;;;2.80;2.60;;;14.50;99.90;14.50;97765;;;;580183;243;25131;-76
2023/03/14 11:24:37;;;;;;;3.30;2.80;;;15.00;99.90;14.90;97752;;;;589474;243;23981;-74
2023/03/14 11:27:23;;;;;;;3.10;2.50;;;15.50;99.90;15.40;97768;;;;580243;243;23993;-76
2023/03/14 11:30:27;;;;;;;4.20;2.70;;;15.90;99.90;15.70;97761;;;;589844;242;24012;-75
2023/03/14 11:33:16;;;;;;;5.17;2.30;;;16.30;99.90;15.90;97767;;;;590918;242;24025;-75
2023/03/14 11:36:02;;;;;;;4.30;3.33;;;16.50;99.90;16.00;97762;;;;590587;243;23970;-76
2023/03/14 11:38:39;;;;;;;4.87;2.58;;;16.60;99.90;15.90;97758;;;;584835;241;45140;-78